ROMMA est une association bénévole à but non lucratif. Votre soutien est indispensable : ADHERER à ROMMA ou FAIRE un DON

Die - (26, Drôme)

Diois (400 m)   Longitude: 5° 21' 55"E   Latitude: 44° 45' 16"N Station partenaire n°159
 

Détail journalier du     <<     >>

Température Precipitation Humidité Pression Vent Dir Rafale Dir. rafale Ensol.
Heure (°C) (mm) (%) (hPa) (km/h) (km/h) (min)
01:00 9.7090101503SE0
02:00 9.1092101503SE0
03:00 8.6093101503SE0
04:00 8.1094101403SE0
05:00 7.7094101402SE0
06:00 7.0094101403SE0
07:00 6.7095101303SE0
08:00 6.7095101302SE0
09:00 7.3096101303SE0
10:00 11.608510131SE3SE0
11:00 16.806010132S6SSO60
12:00 20.904610122SSO6SSO60
13:00 24.504110112NO8OSO60
14:00 26.903710103NO8ONO60
15:00 27.503310096ONO16NNO60
16:00 28.602910086ONO18O60
17:00 28.303010084SSO13SSO60
18:00 25.404410074SO16ONO60
19:00 22.905710096ONO16O0
20:00 19.80.87910109ONO21NO0
21:00 16.41.48810113E18O0
22:00 15.249310122SO6ONO0
23:00 15.32.49410112SO5SO0
minuit 14.9095101103NO0

Graphique du 01-10-2019

 

Serveur OMMA